Time;durP1;ratioP1;P1;durP2;ratioP2;P2;SDS_P1;SDS_P2;PMS_P1;PMS_P2;Temp;Humidity;BMP_temperature;BMP_pressure;BME280_temperature;BME280_humidity;BME280_pressure;Samples;Min_cycle;Max_cycle;Signal;HPM_P1;HPM_P2
2021/06/29 00:02:36;;;;;;;7.53;6.93;;;;;;;24.68;56.07;101118.13;5842456;28;18427094;-64
2021/06/29 00:05:57;;;;;;;8.57;7.85;;;;;;;25.00;54.98;101118.72;6181238;28;20617;-64
2021/06/29 00:09:18;;;;;;;7.65;7.05;;;;;;;24.95;55.21;101118.16;6185527;28;20234;-64
2021/06/29 00:12:41;;;;;;;7.82;7.13;;;;;;;24.89;55.83;101127.41;6190112;28;20225;-65
2021/06/29 00:16:02;;;;;;;9.15;8.30;;;;;;;24.87;55.93;101123.13;6189009;28;20233;-65
2021/06/29 00:19:23;;;;;;;9.80;8.80;;;;;;;24.91;55.37;101117.50;6199284;28;20230;-64
2021/06/29 00:22:44;;;;;;;8.32;7.72;;;;;;;24.52;56.58;101128.88;6192189;28;20252;-64
2021/06/29 00:26:06;;;;;;;7.78;7.07;;;;;;;24.46;56.97;101126.56;6185958;28;20237;-64
2021/06/29 00:29:29;;;;;;;6.93;6.45;;;;;;;24.48;57.02;101127.34;6182828;28;20229;-64
2021/06/29 00:32:49;;;;;;;8.13;7.53;;;;;;;24.66;56.27;101130.66;6182528;28;20250;-64
2021/06/29 00:36:14;;;;;;;9.05;8.32;;;;;;;24.70;56.08;101129.56;6195536;28;20229;-64
2021/06/29 00:39:35;;;;;;;7.80;7.25;;;;;;;24.51;56.40;101135.19;6182055;28;20233;-64
2021/06/29 00:42:57;;;;;;;7.45;6.93;;;;;;;24.67;56.16;101133.25;6192065;28;20248;-64
2021/06/29 00:46:19;;;;;;;7.60;7.10;;;;;;;24.62;56.42;101140.69;6174994;28;20254;-65
2021/06/29 00:49:41;;;;;;;7.90;7.30;;;;;;;24.41;56.79;101142.84;6181595;28;20234;-64
2021/06/29 00:53:03;;;;;;;7.32;6.82;;;;;;;24.24;57.81;101143.03;6187160;28;20238;-64
2021/06/29 00:56:24;;;;;;;8.02;7.43;;;;;;;24.14;58.22;101137.41;6183797;28;20234;-64
2021/06/29 00:59:45;;;;;;;9.18;8.48;;;;;;;24.23;57.75;101139.50;6187644;28;20234;-64
2021/06/29 01:03:08;;;;;;;10.90;7.97;;;;;;;24.27;57.71;101134.84;6176473;28;20550;-65
2021/06/29 01:06:29;;;;;;;9.80;9.00;;;;;;;24.31;57.82;101125.72;6183290;28;20326;-65
2021/06/29 01:09:49;;;;;;;8.43;7.82;;;;;;;24.21;57.95;101127.25;6187172;28;20325;-65
2021/06/29 01:13:10;;;;;;;8.45;7.75;;;;;;;24.06;58.33;101121.94;6190232;28;20230;-65
2021/06/29 01:16:31;;;;;;;8.90;8.05;;;;;;;24.27;57.97;101119.75;6182358;28;20233;-64
2021/06/29 01:19:53;;;;;;;9.23;8.55;;;;;;;24.20;57.93;101114.91;6187401;28;20244;-64
2021/06/29 01:23:19;;;;;;;8.25;7.65;;;;;;;24.20;58.20;101118.41;6183700;28;20246;-64
2021/06/29 01:26:45;;;;;;;8.85;8.15;;;;;;;23.88;59.15;101109.72;6183074;28;20234;-64
2021/06/29 01:33:46;;;;;;;9.02;8.25;;;;;;;23.92;58.77;101111.25;6168812;28;20237;-64
2021/06/29 01:37:07;;;;;;;9.27;8.50;;;;;;;23.95;59.00;101103.94;6193633;28;20602;-65
2021/06/29 01:40:31;;;;;;;9.63;8.70;;;;;;;23.86;59.74;101093.00;6183703;28;20233;-65
2021/06/29 01:43:54;;;;;;;8.85;8.15;;;;;;;23.81;59.42;101095.97;6182461;28;20308;-65
2021/06/29 01:47:24;;;;;;;8.88;8.20;;;;;;;23.91;59.56;101094.44;6187036;28;20801;-64
2021/06/29 01:50:45;;;;;;;7.65;7.07;;;;;;;23.82;60.01;101088.81;6181166;28;20281;-65
2021/06/29 01:54:06;;;;;;;8.13;7.53;;;;;;;23.89;59.36;101082.19;6180046;28;20622;-64
2021/06/29 01:57:29;;;;;;;9.27;8.32;;;;;;;23.67;60.43;101086.13;6185720;28;20238;-65
2021/06/29 02:00:50;;;;;;;8.40;7.80;;;;;;;23.83;60.08;101090.56;6189187;28;20254;-64
2021/06/29 02:04:12;;;;;;;8.15;7.63;;;;;;;23.90;59.73;101082.09;6183534;28;20650;-65
2021/06/29 02:07:33;;;;;;;8.40;7.78;;;;;;;23.98;59.26;101079.84;6187701;28;20230;-65
2021/06/29 02:10:54;;;;;;;9.25;8.65;;;;;;;23.76;60.23;101080.22;6178585;28;20320;-65
2021/06/29 02:15:12;;;;;;;9.15;8.52;;;;;;;23.73;60.20;101068.91;6183577;28;20233;-66
2021/06/29 02:18:36;;;;;;;8.25;7.50;;;;;;;24.10;58.85;101078.22;6185154;28;20233;-64
2021/06/29 02:22:01;;;;;;;9.68;8.70;;;;;;;23.92;59.09;101066.91;6184014;28;20233;-64
2021/06/29 02:25:24;;;;;;;9.50;8.35;;;;;;;23.85;59.27;101065.56;6188525;28;20230;-64
2021/06/29 02:28:46;;;;;;;9.35;8.55;;;;;;;23.61;60.23;101067.00;6184946;28;20308;-65
2021/06/29 02:32:15;;;;;;;9.07;8.27;;;;;;;23.55;60.68;101066.44;6186873;28;20876;-65
2021/06/29 02:35:41;;;;;;;9.63;8.82;;;;;;;23.62;60.56;101069.59;6185407;28;20294;-66
2021/06/29 02:39:06;;;;;;;9.40;8.60;;;;;;;23.57;60.78;101066.34;6180549;28;20233;-64
2021/06/29 02:42:31;;;;;;;9.68;8.77;;;;;;;23.65;60.30;101061.44;6179572;28;20238;-64
2021/06/29 02:45:55;;;;;;;8.35;7.65;;;;;;;23.43;61.07;101053.88;6186385;28;20337;-64
2021/06/29 02:49:20;;;;;;;9.57;8.88;;;;;;;23.39;61.07;101058.50;6177207;28;20230;-64
2021/06/29 02:52:48;;;;;;;8.02;7.43;;;;;;;23.41;61.05;101049.59;6189051;28;20233;-65
2021/06/29 02:56:37;;;;;;;8.80;8.07;;;;;;;23.37;61.10;101041.81;6188571;28;20690;-64
2021/06/29 02:59:58;;;;;;;9.57;8.80;;;;;;;23.42;61.29;101043.31;6182023;28;20229;-64
2021/06/29 03:03:24;;;;;;;10.20;9.27;;;;;;;23.61;60.18;101049.25;6184529;28;20241;-64
2021/06/29 03:06:46;;;;;;;11.05;10.20;;;;;;;23.34;61.29;101049.97;6181827;28;21028;-65
2021/06/29 03:10:10;;;;;;;11.13;10.00;;;;;;;23.10;61.98;101046.09;6172378;28;20221;-64
2021/06/29 03:13:32;;;;;;;10.25;9.55;;;;;;;23.17;62.19;101050.09;6184916;28;20631;-64
2021/06/29 03:16:53;;;;;;;11.32;10.32;;;;;;;23.29;61.63;101044.06;6185141;28;20237;-64
2021/06/29 03:20:14;;;;;;;11.02;10.07;;;;;;;23.28;61.85;101037.03;6181797;28;20242;-63
2021/06/29 03:23:35;;;;;;;10.82;9.90;;;;;;;23.49;61.05;101036.72;6180181;28;20237;-64
2021/06/29 03:26:58;;;;;;;12.80;11.30;;;;;;;23.41;61.30;101053.09;6186538;28;20232;-64
2021/06/29 03:30:20;;;;;;;11.27;10.20;;;;;;;23.48;61.03;101053.63;6184292;28;20230;-64
2021/06/29 03:33:41;;;;;;;12.40;11.25;;;;;;;23.28;61.75;101063.59;6186697;28;20238;-64
2021/06/29 03:37:02;;;;;;;11.63;10.73;;;;;;;23.25;62.21;101069.09;6185819;28;20233;-64
2021/06/29 03:40:23;;;;;;;12.23;11.13;;;;;;;23.32;62.04;101069.59;6180659;28;20234;-65
2021/06/29 03:43:46;;;;;;;12.18;11.18;;;;;;;23.14;62.56;101082.16;6183869;28;20253;-64
2021/06/29 03:47:07;;;;;;;12.30;11.23;;;;;;;23.53;61.33;101084.25;6184162;28;20234;-63
2021/06/29 03:50:28;;;;;;;12.30;10.82;;;;;;;23.64;60.85;101086.28;6181586;28;20512;-65
2021/06/29 03:53:49;;;;;;;9.95;9.18;;;;;;;23.62;61.17;101077.56;6176404;28;20238;-64
2021/06/29 03:57:10;;;;;;;50.17;46.33;;;;;;;23.62;61.35;101082.03;6172955;28;20229;-66
2021/06/29 04:00:33;;;;;;;14.68;13.48;;;;;;;23.52;61.36;101087.03;6180112;28;20650;-64
2021/06/29 04:03:55;;;;;;;15.90;14.60;;;;;;;23.04;63.16;101080.97;6187068;28;21785;-64
2021/06/29 04:07:16;;;;;;;14.93;13.55;;;;;;;23.25;62.99;101079.72;6183766;28;20313;-64
2021/06/29 04:10:37;;;;;;;15.05;13.88;;;;;;;23.61;61.64;101081.16;6188609;28;20559;-65
2021/06/29 04:13:59;;;;;;;12.35;11.30;;;;;;;23.76;61.21;101088.22;6180391;28;20253;-65
2021/06/29 04:17:21;;;;;;;12.05;11.00;;;;;;;23.87;60.75;101078.78;6184339;28;20321;-65
2021/06/29 04:20:42;;;;;;;22.85;20.98;;;;;;;23.76;61.61;101084.69;6188055;28;20253;-64
2021/06/29 04:24:06;;;;;;;12.13;11.13;;;;;;;22.92;64.86;101088.66;6186776;28;20332;-64
2021/06/29 04:27:26;;;;;;;13.15;12.05;;;;;;;22.34;67.40;101094.53;6191203;28;20519;-64
2021/06/29 04:30:47;;;;;;;13.73;12.52;;;;;;;22.96;65.41;101092.00;6192182;28;20229;-64
2021/06/29 04:34:09;;;;;;;11.95;11.00;;;;;;;23.00;65.28;101097.03;6189118;28;20226;-64
2021/06/29 04:37:30;;;;;;;12.77;11.75;;;;;;;22.88;65.89;101076.50;6190734;28;20234;-64
2021/06/29 04:40:51;;;;;;;11.95;10.90;;;;;;;23.38;64.27;101074.56;6177461;28;20612;-64
2021/06/29 04:44:12;;;;;;;13.20;12.30;;;;;;;24.09;61.40;101071.19;6186774;28;20535;-64
2021/06/29 04:47:38;;;;;;;12.35;11.30;;;;;;;24.02;62.05;101075.19;6188663;28;20429;-63
2021/06/29 04:51:01;;;;;;;12.85;11.70;;;;;;;24.42;60.63;101072.69;6189284;28;20226;-65
2021/06/29 04:54:21;;;;;;;13.43;11.85;;;;;;;24.30;61.08;101066.31;6188186;28;20551;-65
2021/06/29 04:57:43;;;;;;;12.48;11.20;;;;;;;24.29;60.24;101069.06;6185381;28;20223;-64
2021/06/29 05:01:04;;;;;;;12.52;11.55;;;;;;;24.22;60.55;101075.75;6184998;28;20234;-65
2021/06/29 05:04:25;;;;;;;12.95;11.63;;;;;;;23.44;63.22;101086.59;6185660;28;20613;-65
2021/06/29 05:07:48;;;;;;;13.75;12.55;;;;;;;22.90;65.18;101092.34;6184572;28;20569;-63
2021/06/29 05:11:09;;;;;;;12.43;11.27;;;;;;;23.31;63.74;101079.38;6182517;28;20485;-64
2021/06/29 05:14:30;;;;;;;11.70;10.77;;;;;;;22.75;65.20;101083.44;6189222;28;20242;-64
2021/06/29 05:17:51;;;;;;;12.27;11.10;;;;;;;23.21;63.56;101080.84;6184808;28;20292;-64
2021/06/29 05:21:12;;;;;;;13.48;12.27;;;;;;;23.38;62.93;101078.06;6179023;28;20246;-63
2021/06/29 05:24:34;;;;;;;11.82;10.60;;;;;;;22.57;63.57;101082.66;6187493;28;20864;-64
2021/06/29 05:27:55;;;;;;;10.40;9.60;;;;;;;22.79;63.00;101077.00;6184950;28;20678;-64
2021/06/29 05:31:16;;;;;;;9.93;9.13;;;;;;;22.54;63.49;101077.53;6181227;28;20426;-64
2021/06/29 05:34:38;;;;;;;10.27;8.05;;;;;;;23.06;61.77;101074.63;6185669;28;20226;-65
2021/06/29 05:38:00;;;;;;;9.73;8.82;;;;;;;23.17;61.35;101089.94;6186797;28;20237;-64
2021/06/29 05:41:22;;;;;;;8.93;8.15;;;;;;;23.24;61.22;101088.63;6174242;28;20226;-65
2021/06/29 05:44:43;;;;;;;10.23;9.23;;;;;;;23.15;61.61;101094.50;6184078;28;20234;-65
2021/06/29 05:48:04;;;;;;;8.98;7.45;;;;;;;23.57;60.68;101096.44;6187303;28;20229;-66
2021/06/29 05:51:27;;;;;;;9.18;8.18;;;;;;;23.45;60.83;101097.16;6181216;28;20519;-64
2021/06/29 05:54:48;;;;;;;8.77;8.02;;;;;;;23.55;60.21;101093.03;6188604;28;20734;-65
2021/06/29 05:58:10;;;;;;;9.15;8.30;;;;;;;24.21;58.03;101090.00;6186763;28;20321;-65
2021/06/29 06:01:31;;;;;;;7.63;6.93;;;;;;;23.51;58.99;101093.28;6174874;28;20233;-65
2021/06/29 06:04:52;;;;;;;7.20;6.63;;;;;;;22.93;59.65;101090.34;6174689;28;20287;-65
2021/06/29 06:08:13;;;;;;;5.88;5.45;;;;;;;23.15;59.11;101086.53;6183400;28;20222;-64
2021/06/29 06:11:34;;;;;;;6.53;5.93;;;;;;;23.64;57.96;101091.63;6186806;28;20237;-66
2021/06/29 06:14:56;;;;;;;7.30;5.15;;;;;;;24.09;56.28;101095.13;6185682;28;20868;-64
2021/06/29 06:18:17;;;;;;;5.75;5.30;;;;;;;24.20;55.55;101099.78;6172556;28;20241;-64
2021/06/29 06:21:38;;;;;;;5.65;5.25;;;;;;;24.05;56.64;101093.59;6181743;28;20241;-64
2021/06/29 06:24:59;;;;;;;6.60;5.90;;;;;;;23.64;57.87;101088.94;6175283;28;20225;-65
2021/06/29 06:28:21;;;;;;;6.97;5.93;;;;;;;24.03;56.50;101087.53;6186847;28;20571;-64
2021/06/29 06:31:43;;;;;;;5.38;4.88;;;;;;;23.51;56.92;101085.31;6191235;28;20912;-65
2021/06/29 06:35:05;;;;;;;7.50;4.25;;;;;;;23.89;56.67;101079.53;6185085;28;20714;-67
2021/06/29 06:38:26;;;;;;;9.60;5.15;;;;;;;24.14;55.55;101077.06;6181972;28;20226;-66
2021/06/29 06:41:46;;;;;;;4.95;4.55;;;;;;;25.08;53.29;101070.25;6189090;28;20538;-65
2021/06/29 06:45:09;;;;;;;6.45;5.93;;;;;;;25.53;52.24;101065.47;6184759;28;20632;-63
2021/06/29 06:48:31;;;;;;;5.75;5.25;;;;;;;25.40;52.00;101068.16;6181098;28;20241;-64
2021/06/29 06:51:52;;;;;;;4.93;4.25;;;;;;;25.71;51.57;101072.25;6188607;28;20234;-65
2021/06/29 06:55:13;;;;;;;5.78;5.28;;;;;;;24.80;54.39;101076.56;6176678;28;20245;-65
2021/06/29 06:58:34;;;;;;;5.78;5.28;;;;;;;23.87;56.88;101076.13;6178749;28;20324;-63
2021/06/29 07:01:55;;;;;;;7.00;6.20;;;;;;;24.84;54.22;101078.06;6176338;28;20246;-64
2021/06/29 07:05:18;;;;;;;7.05;6.50;;;;;;;24.68;55.23;101072.84;6182960;28;20225;-64
2021/06/29 07:08:39;;;;;;;6.70;6.10;;;;;;;24.54;55.59;101079.94;6181252;28;20242;-65
2021/06/29 07:12:01;;;;;;;6.75;6.20;;;;;;;24.38;55.95;101080.00;6189185;28;20624;-65
2021/06/29 07:15:22;;;;;;;7.68;6.30;;;;;;;24.70;55.04;101074.47;6186827;28;20233;-66
2021/06/29 07:18:43;;;;;;;8.25;7.65;;;;;;;24.59;55.78;101082.28;6181455;28;20241;-61
2021/06/29 07:22:05;;;;;;;5.95;5.47;;;;;;;25.30;54.06;101077.69;6182979;28;20241;-61
2021/06/29 07:25:26;;;;;;;8.02;7.35;;;;;;;25.46;53.69;101074.88;6178874;28;20230;-61
2021/06/29 07:28:48;;;;;;;8.63;7.82;;;;;;;25.81;53.41;101068.94;6179039;28;20261;-61
2021/06/29 07:32:09;;;;;;;8.00;7.07;;;;;;;26.61;50.65;101066.84;6178550;28;20525;-61
2021/06/29 07:35:30;;;;;;;8.18;6.85;;;;;;;26.49;51.22;101062.38;6184021;28;20234;-62
2021/06/29 07:38:54;;;;;;;7.82;7.03;;;;;;;27.11;49.32;101074.78;6179807;28;20237;-62
2021/06/29 07:42:14;;;;;;;8.25;7.45;;;;;;;26.90;49.47;101075.38;6182765;28;20599;-62
2021/06/29 07:45:35;;;;;;;7.85;7.25;;;;;;;25.37;53.94;101083.50;6180976;28;20595;-63
2021/06/29 07:48:56;;;;;;;10.48;9.55;;;;;;;24.73;55.20;101076.06;6179751;28;20234;-62
2021/06/29 07:52:17;;;;;;;9.00;8.20;;;;;;;25.11;54.73;101070.06;6184895;28;20255;-62
2021/06/29 07:55:39;;;;;;;7.05;6.38;;;;;;;25.99;51.73;101065.00;6193396;28;20651;-63
2021/06/29 07:59:00;;;;;;;9.65;8.95;;;;;;;25.49;52.77;101058.66;6183215;28;20267;-63
2021/06/29 08:02:21;;;;;;;9.82;8.80;;;;;;;25.55;52.64;101058.22;6186646;28;20229;-62
2021/06/29 08:05:42;;;;;;;7.78;7.10;;;;;;;27.04;49.47;101054.81;6185187;28;21778;-59
2021/06/29 08:09:05;;;;;;;8.13;7.40;;;;;;;27.45;48.78;101058.88;6188354;28;20309;-62
2021/06/29 08:12:27;;;;;;;8.20;7.50;;;;;;;27.53;48.26;101061.84;6184756;28;20248;-61
2021/06/29 08:15:48;;;;;;;6.90;6.40;;;;;;;27.70;48.09;101063.19;6179578;28;20275;-62
2021/06/29 08:19:09;;;;;;;8.05;7.35;;;;;;;27.66;47.32;101051.00;6180399;28;20352;-63
2021/06/29 08:22:30;;;;;;;9.50;6.70;;;;;;;28.22;47.00;101060.94;6191756;28;20241;-62
2021/06/29 08:25:51;;;;;;;8.18;6.55;;;;;;;28.09;47.16;101053.03;6185270;28;20332;-62
2021/06/29 08:29:13;;;;;;;7.95;7.22;;;;;;;28.08;46.71;101056.69;6177497;28;20227;-61
2021/06/29 08:32:37;;;;;;;7.85;6.75;;;;;;;27.74;47.63;101058.44;6177057;28;20238;-61
2021/06/29 08:35:58;;;;;;;8.75;8.07;;;;;;;27.00;48.59;101056.00;6181379;28;20479;-63
2021/06/29 08:39:19;;;;;;;8.50;7.97;;;;;;;26.48;50.41;101052.63;6175921;28;20324;-61
2021/06/29 08:42:40;;;;;;;8.07;7.38;;;;;;;26.95;49.70;101055.50;6190171;28;20225;-60
2021/06/29 08:46:03;;;;;;;6.10;5.70;;;;;;;26.86;49.42;101063.22;6179466;28;20316;-62
2021/06/29 08:49:24;;;;;;;6.95;6.50;;;;;;;26.81;49.11;101054.72;6177637;28;20607;-61
2021/06/29 08:52:45;;;;;;;7.15;6.63;;;;;;;26.71;49.48;101053.66;6186820;28;20234;-60
2021/06/29 08:56:06;;;;;;;7.65;7.05;;;;;;;25.70;51.62;101056.34;6186162;28;20238;-61
2021/06/29 08:59:27;;;;;;;6.93;6.43;;;;;;;26.15;50.82;101058.59;6190627;28;20230;-61
2021/06/29 09:02:49;;;;;;;6.47;5.95;;;;;;;26.52;49.76;101054.13;6186623;28;20260;-61
2021/06/29 09:06:11;;;;;;;5.43;4.93;;;;;;;26.47;49.88;101046.47;6193974;28;20233;-63
2021/06/29 09:09:34;;;;;;;7.55;5.75;;;;;;;26.84;48.76;101042.94;6187929;28;20595;-62
2021/06/29 09:12:55;;;;;;;5.93;4.60;;;;;;;26.61;49.04;101052.66;6177102;28;20226;-61
2021/06/29 09:16:23;;;;;;;5.57;5.00;;;;;;;26.38;49.62;101055.13;6187369;28;20318;-63
2021/06/29 09:19:46;;;;;;;6.30;5.70;;;;;;;25.86;51.05;101065.00;6189393;28;20222;-62
2021/06/29 09:23:10;;;;;;;6.93;6.30;;;;;;;25.35;53.36;101063.09;6192042;28;20377;-62
2021/06/29 09:26:38;;;;;;;9.07;7.97;;;;;;;24.80;55.16;101065.91;6176549;28;20233;-61
2021/06/29 09:29:59;;;;;;;9.27;7.25;;;;;;;25.76;53.15;101060.41;6187348;28;20828;-63
2021/06/29 09:33:21;;;;;;;7.90;7.25;;;;;;;25.79;52.27;101060.19;6186862;28;20218;-61
2021/06/29 09:36:43;;;;;;;7.90;7.20;;;;;;;25.72;51.99;101063.25;6185504;28;20241;-61
2021/06/29 09:40:12;;;;;;;8.55;7.88;;;;;;;25.34;54.12;101061.41;6186006;28;20333;-62
2021/06/29 09:43:36;;;;;;;10.68;9.75;;;;;;;24.91;55.22;101072.22;6187584;28;20238;-62
2021/06/29 09:46:57;;;;;;;8.50;7.90;;;;;;;25.42;53.94;101068.91;6183670;28;20253;-62
2021/06/29 09:50:35;;;;;;;7.40;6.75;;;;;;;25.45;53.40;101071.34;6186424;28;20229;-60
2021/06/29 09:54:00;;;;;;;8.90;8.18;;;;;;;25.36;53.82;101069.31;6192493;28;20230;-60
2021/06/29 09:57:24;;;;;;;9.85;8.85;;;;;;;25.12;55.21;101067.28;6178729;28;20242;-62
2021/06/29 10:00:48;;;;;;;9.10;8.30;;;;;;;25.87;53.46;101069.34;6178181;28;20339;-60
2021/06/29 10:04:10;;;;;;;7.95;7.35;;;;;;;25.90;52.98;101073.63;6178212;28;20287;-61
2021/06/29 10:07:39;;;;;;;6.63;6.20;;;;;;;26.46;51.36;101070.59;6181355;28;20562;-53
2021/06/29 10:11:08;;;;;;;8.35;7.65;;;;;;;26.52;51.34;101060.34;6178288;28;20895;-51
2021/06/29 10:14:28;;;;;;;8.73;7.10;;;;;;;26.10;53.31;101069.59;6189722;28;20218;-53
2021/06/29 10:17:50;;;;;;;8.82;8.00;;;;;;;25.03;55.82;101073.25;6188035;28;20662;-50
2021/06/29 10:24:49;;;;;;;7.70;7.10;;;;;;;25.83;53.54;101069.69;6170230;28;20600;-52
2021/06/29 10:28:13;;;;;;;8.98;8.18;;;;;;;25.40;56.41;101064.63;6184046;28;20531;-53
2021/06/29 10:31:36;;;;;;;9.38;8.60;;;;;;;25.57;57.38;101058.13;6178658;28;20659;-52
2021/06/29 10:34:58;;;;;;;10.13;9.32;;;;;;;24.76;61.16;101062.56;6188315;28;20325;-55
2021/06/29 10:38:20;;;;;;;9.82;8.98;;;;;;;25.26;59.66;101062.88;6167410;28;20229;-53
2021/06/29 10:41:44;;;;;;;11.52;9.80;;;;;;;25.15;60.14;101055.59;6188177;28;20604;-50
2021/06/29 10:45:14;;;;;;;8.30;7.50;;;;;;;25.71;58.00;101042.91;6176419;28;20242;-53
2021/06/29 10:48:35;;;;;;;9.48;8.63;;;;;;;26.01;57.38;101039.06;6182935;28;20686;-54
2021/06/29 10:51:57;;;;;;;8.70;8.10;;;;;;;26.74;55.45;101025.91;6180809;28;20626;-51
2021/06/29 10:55:26;;;;;;;8.70;8.10;;;;;;;26.94;55.42;101027.06;6176306;28;20275;-53
2021/06/29 10:58:50;;;;;;;9.07;8.32;;;;;;;27.01;55.31;101017.66;6179821;28;20237;-55
2021/06/29 11:02:15;;;;;;;7.78;7.22;;;;;;;27.15;54.67;101024.63;6177454;28;20241;-51
2021/06/29 11:05:39;;;;;;;9.20;8.45;;;;;;;27.11;54.64;101019.50;6184158;28;20344;-49
2021/06/29 11:09:00;;;;;;;9.05;8.25;;;;;;;27.06;54.74;101021.69;6180998;28;20233;-54
2021/06/29 11:12:23;;;;;;;9.88;9.05;;;;;;;26.11;56.11;101031.25;6186609;28;20615;-53
2021/06/29 11:15:49;;;;;;;8.18;7.45;;;;;;;26.43;56.13;101028.13;6190155;28;20241;-53
2021/06/29 11:19:11;;;;;;;9.82;9.10;;;;;;;27.00;54.64;101016.78;6185006;28;20221;-55
2021/06/29 11:22:49;;;;;;;11.13;10.00;;;;;;;27.43;53.31;101001.97;6185668;28;20249;-51
2021/06/29 11:26:19;;;;;;;10.55;9.70;;;;;;;27.73;53.00;101005.94;6187405;28;20230;-52
2021/06/29 11:29:42;;;;;;;8.95;8.35;;;;;;;27.44;52.44;100998.34;6190109;28;20221;-52
2021/06/29 11:33:32;;;;;;;8.38;7.60;;;;;;;27.17;53.38;101002.13;6187142;28;20234;-52
2021/06/29 11:36:55;;;;;;;8.68;7.97;;;;;;;27.46;52.83;101002.59;6180358;28;20234;-52
2021/06/29 11:40:30;;;;;;;7.78;7.18;;;;;;;28.17;51.48;100998.88;6164132;28;20249;-54
2021/06/29 11:43:51;;;;;;;8.98;8.13;;;;;;;26.76;54.10;101006.13;6177611;28;20237;-50
2021/06/29 11:47:14;;;;;;;9.98;9.07;;;;;;;26.68;55.25;101000.50;6175634;28;20316;-53
2021/06/29 11:50:42;;;;;;;12.02;10.82;;;;;;;25.42;62.68;101009.41;6176279;28;20623;-51
2021/06/29 11:54:04;;;;;;;12.50;11.50;;;;;;;25.38;62.77;101013.22;6194129;28;20236;-53
2021/06/29 11:57:27;;;;;;;11.13;10.23;;;;;;;26.34;59.03;101013.59;6187545;28;20230;-52
2021/06/29 12:00:48;;;;;;;12.48;11.25;;;;;;;25.76;59.50;101007.06;6181771;28;20242;-53
2021/06/29 12:04:10;;;;;;;9.80;8.95;;;;;;;26.07;58.53;101005.75;6187843;28;20234;-52
2021/06/29 12:07:36;;;;;;;11.60;10.27;;;;;;;25.70;59.91;100998.50;6185546;28;20270;-49
2021/06/29 12:11:00;;;;;;;12.50;11.50;;;;;;;25.69;59.04;100996.81;6187324;28;20332;-53
2021/06/29 12:14:21;;;;;;;11.00;10.10;;;;;;;25.85;59.81;100987.75;6177690;28;20547;-50
2021/06/29 12:17:50;;;;;;;8.52;7.78;;;;;;;27.15;55.70;100982.69;6184876;28;20655;-48
2021/06/29 12:21:11;;;;;;;11.23;10.20;;;;;;;27.97;53.19;100977.22;6188154;28;20237;-54
2021/06/29 12:24:32;;;;;;;11.98;10.77;;;;;;;25.87;56.07;100981.31;6195781;28;20324;-48
2021/06/29 12:27:56;;;;;;;9.60;8.90;;;;;;;26.64;54.65;100974.97;6181768;28;20230;-49
2021/06/29 12:31:17;;;;;;;10.48;9.45;;;;;;;28.04;51.53;100975.78;6178085;28;20236;-51
2021/06/29 12:34:38;;;;;;;11.35;10.38;;;;;;;28.65;49.36;100969.09;6193543;28;20238;-49
2021/06/29 12:38:02;;;;;;;10.57;9.50;;;;;;;29.68;47.25;100959.47;6181311;28;20714;-52
2021/06/29 12:41:25;;;;;;;11.55;10.75;;;;;;;29.48;46.48;100962.06;6191369;28;21569;-48
2021/06/29 12:44:47;;;;;;;10.88;10.18;;;;;;;30.27;45.06;100960.56;6187548;28;20320;-53
2021/06/29 12:48:09;;;;;;;11.50;10.65;;;;;;;29.47;46.89;100960.41;6187198;28;20228;-49
2021/06/29 12:51:32;;;;;;;10.63;9.85;;;;;;;28.54;48.95;100955.72;6176605;28;20237;-52
2021/06/29 12:55:03;;;;;;;10.70;9.85;;;;;;;28.46;49.29;100959.88;6193987;28;20313;-51
2021/06/29 12:58:25;;;;;;;9.63;8.82;;;;;;;26.77;53.34;100957.03;6176980;28;20222;-52
2021/06/29 13:01:52;;;;;;;8.68;8.00;;;;;;;27.14;52.50;100958.75;6168645;28;20312;-50
2021/06/29 13:05:20;;;;;;;11.30;9.50;;;;;;;26.79;53.71;100959.59;6186390;28;20233;-55
2021/06/29 13:08:41;;;;;;;8.40;7.80;;;;;;;26.30;52.45;100945.38;6181978;28;21274;-53
2021/06/29 13:12:07;;;;;;;7.40;6.82;;;;;;;26.39;53.96;100947.38;6201526;28;20238;-50
2021/06/29 13:15:30;;;;;;;8.18;7.40;;;;;;;26.41;52.61;100940.13;6182916;28;20234;-52
2021/06/29 13:18:53;;;;;;;6.78;6.18;;;;;;;26.21;52.87;100935.38;6185328;28;20222;-47
2021/06/29 13:22:16;;;;;;;8.07;7.25;;;;;;;24.99;56.30;100937.66;6181208;28;20245;-52
2021/06/29 13:25:38;;;;;;;7.97;7.00;;;;;;;25.28;56.45;100935.69;6189568;28;20425;-53
2021/06/29 13:29:00;;;;;;;6.57;5.97;;;;;;;25.11;55.67;100944.84;6189047;28;20317;-49
2021/06/29 13:32:22;;;;;;;6.05;5.45;;;;;;;25.08;55.23;100934.38;6187124;28;20231;-54
2021/06/29 13:35:46;;;;;;;4.68;4.15;;;;;;;24.89;54.03;100935.66;6185220;28;20225;-50
2021/06/29 13:39:07;;;;;;;3.85;3.55;;;;;;;25.05;54.11;100942.59;6174518;28;20238;-49
2021/06/29 13:42:29;;;;;;;4.70;4.40;;;;;;;24.49;56.87;100940.91;6169320;28;20320;-50
2021/06/29 13:45:51;;;;;;;4.05;3.75;;;;;;;24.01;56.68;100945.78;6170831;28;20229;-49
2021/06/29 13:49:17;;;;;;;3.95;3.65;;;;;;;24.71;55.61;100939.53;6186483;28;20552;-50
2021/06/29 13:52:53;;;;;;;4.10;3.80;;;;;;;24.95;55.43;100932.56;6176602;28;20241;-49
2021/06/29 13:56:14;;;;;;;4.22;3.85;;;;;;;24.88;55.36;100930.41;6183307;28;20281;-49
2021/06/29 13:59:37;;;;;;;4.13;3.83;;;;;;;25.08;54.51;100932.56;6178571;28;20241;-51
2021/06/29 14:03:09;;;;;;;3.70;3.40;;;;;;;25.28;54.26;100936.56;6175125;28;20686;-51
2021/06/29 14:06:30;;;;;;;4.35;4.05;;;;;;;25.35;54.03;100924.50;6182709;28;20849;-50
2021/06/29 14:09:53;;;;;;;4.47;4.10;;;;;;;25.19;53.86;100923.00;6187369;28;20242;-51
2021/06/29 14:13:14;;;;;;;4.97;4.57;;;;;;;25.40;54.10;100915.38;6183447;28;20325;-52
2021/06/29 14:16:35;;;;;;;4.15;3.85;;;;;;;24.88;55.18;100915.28;6179767;28;20233;-55
2021/06/29 14:19:56;;;;;;;4.93;4.25;;;;;;;24.69;56.76;100923.66;6181010;28;20233;-51
2021/06/29 14:23:17;;;;;;;5.40;5.00;;;;;;;24.92;56.25;100927.44;6175844;28;20237;-54
2021/06/29 14:26:39;;;;;;;6.15;5.65;;;;;;;25.29;55.69;100926.75;6176587;28;20246;-50
2021/06/29 14:30:00;;;;;;;5.47;4.95;;;;;;;25.58;54.62;100924.72;6184535;28;20233;-53
2021/06/29 14:33:21;;;;;;;5.13;4.70;;;;;;;24.82;55.87;100925.50;6182499;28;20230;-49
2021/06/29 14:36:42;;;;;;;4.53;4.13;;;;;;;24.75;54.72;100919.72;6181150;28;20229;-52
2021/06/29 14:40:05;;;;;;;6.95;3.90;;;;;;;24.51;55.74;100915.06;6185944;28;20237;-54
2021/06/29 14:43:27;;;;;;;5.20;4.65;;;;;;;25.14;53.81;100909.97;6181624;28;20226;-52
2021/06/29 14:46:48;;;;;;;4.72;4.43;;;;;;;24.96;54.45;100907.63;6180092;28;20237;-55
2021/06/29 14:50:10;;;;;;;5.32;4.75;;;;;;;25.19;54.39;100905.19;6182786;28;20324;-55
2021/06/29 14:53:31;;;;;;;6.57;4.35;;;;;;;25.51;53.33;100902.09;6171730;28;20225;-53
2021/06/29 14:56:52;;;;;;;4.25;3.72;;;;;;;25.82;52.77;100900.75;6186037;28;20226;-55
2021/06/29 15:00:17;;;;;;;4.25;3.92;;;;;;;26.68;50.79;100897.19;6178088;28;20238;-53
2021/06/29 15:03:38;;;;;;;4.50;4.20;;;;;;;26.42;52.35;100900.91;6183648;28;20353;-56
2021/06/29 15:06:59;;;;;;;5.45;4.90;;;;;;;26.28;53.32;100894.78;6182939;28;20401;-55
2021/06/29 15:10:20;;;;;;;4.68;4.38;;;;;;;26.28;53.12;100896.59;6183835;28;20230;-51
2021/06/29 15:13:41;;;;;;;4.75;4.35;;;;;;;26.08;53.67;100901.59;6185469;28;20300;-51
2021/06/29 15:17:04;;;;;;;5.28;4.88;;;;;;;26.30;53.54;100900.00;6175036;28;20238;-53
2021/06/29 15:20:25;;;;;;;4.97;4.55;;;;;;;25.84;54.51;100892.66;6178083;28;20740;-51
2021/06/29 15:23:46;;;;;;;5.63;4.32;;;;;;;26.08;53.93;100898.91;6174119;28;20226;-53
2021/06/29 15:27:07;;;;;;;5.03;4.63;;;;;;;26.30;53.00;100894.66;6169754;28;20269;-50
2021/06/29 15:30:28;;;;;;;4.85;4.45;;;;;;;26.57;51.84;100885.56;6174888;28;20253;-51
2021/06/29 15:33:50;;;;;;;5.47;4.75;;;;;;;26.41;52.29;100893.88;6188353;28;20229;-50
2021/06/29 15:37:12;;;;;;;5.30;4.90;;;;;;;27.11;51.05;100885.84;6165785;28;20325;-50
2021/06/29 15:40:33;;;;;;;3.90;3.58;;;;;;;27.51;49.91;100881.91;6185938;28;20234;-50
2021/06/29 15:43:55;;;;;;;4.03;3.72;;;;;;;26.67;52.36;100886.59;6176567;28;20258;-53
2021/06/29 15:47:16;;;;;;;4.13;3.75;;;;;;;26.69;51.95;100892.69;6183027;28;20226;-54